createdAt,value
2022-09-19T00:01:55.094Z,90.40
2022-09-19T00:04:31.580Z,90.40
2022-09-19T00:07:00.612Z,90.40
2022-09-19T00:09:31.048Z,90.40
2022-09-19T00:11:59.479Z,90.30
2022-09-19T00:14:32.873Z,90.30
2022-09-19T00:17:08.641Z,90.30
2022-09-19T00:19:38.337Z,90.30
2022-09-19T00:22:06.938Z,90.30
2022-09-19T00:24:46.592Z,90.20
2022-09-19T00:27:21.937Z,90.10
2022-09-19T00:29:50.486Z,90.10
2022-09-19T00:32:18.353Z,90.10
2022-09-19T00:34:51.344Z,90.00
2022-09-19T00:37:21.356Z,90.00
2022-09-19T00:39:49.292Z,89.90
2022-09-19T00:42:22.540Z,89.90
2022-09-19T00:45:14.388Z,89.80
2022-09-19T00:47:49.281Z,89.70
2022-09-19T00:50:28.410Z,89.70
2022-09-19T00:53:01.433Z,89.70
2022-09-19T00:55:30.009Z,89.60
2022-09-19T00:58:07.819Z,89.60
2022-09-19T01:00:39.167Z,89.50
2022-09-19T01:03:10.877Z,89.50
2022-09-19T01:05:51.566Z,89.50
2022-09-19T01:08:44.693Z,89.50
2022-09-19T01:11:31.231Z,89.40
2022-09-19T01:14:13.151Z,89.40
2022-09-19T01:16:54.110Z,89.40
2022-09-19T01:19:43.404Z,89.40
2022-09-19T01:22:21.333Z,89.40
2022-09-19T01:25:05.211Z,89.50
2022-09-19T01:27:54.674Z,89.40
2022-09-19T01:30:23.943Z,89.40
2022-09-19T01:33:10.234Z,89.40
2022-09-19T01:35:40.718Z,89.40
2022-09-19T01:38:16.763Z,89.40
2022-09-19T01:40:45.722Z,89.40
2022-09-19T01:43:15.396Z,89.40
2022-09-19T01:45:43.560Z,89.30
2022-09-19T01:48:51.246Z,89.40
2022-09-19T01:51:30.089Z,89.40
2022-09-19T01:54:23.014Z,89.40
2022-09-19T01:57:13.634Z,89.40
2022-09-19T02:00:01.863Z,89.40
2022-09-19T02:02:48.141Z,89.40
2022-09-19T02:05:22.886Z,89.50
2022-09-19T02:08:10.988Z,89.50
2022-09-19T02:10:47.921Z,89.60
2022-09-19T02:13:18.458Z,89.60
2022-09-19T02:16:01.967Z,89.50
2022-09-19T02:18:36.749Z,89.50
2022-09-19T02:21:09.655Z,89.50
2022-09-19T02:23:48.191Z,89.50
2022-09-19T02:26:20.781Z,89.50
2022-09-19T02:28:55.662Z,89.50
2022-09-19T02:31:28.412Z,89.50
2022-09-19T02:34:02.034Z,89.50
2022-09-19T02:36:35.933Z,89.50
2022-09-19T02:39:33.991Z,89.50
2022-09-19T02:42:35.079Z,89.50
2022-09-19T02:45:31.168Z,89.50
2022-09-19T02:48:07.084Z,89.50
2022-09-19T02:50:44.848Z,89.50
2022-09-19T02:53:17.859Z,89.50
2022-09-19T02:55:56.864Z,89.50
2022-09-19T02:58:30.121Z,89.50
2022-09-19T03:01:07.494Z,89.50
2022-09-19T03:04:06.529Z,89.50
2022-09-19T03:06:45.626Z,89.50
2022-09-19T03:09:18.335Z,89.50
2022-09-19T03:11:51.877Z,89.40
2022-09-19T03:14:20.497Z,89.40
2022-09-19T03:16:51.202Z,89.40
2022-09-19T03:19:19.119Z,89.40
2022-09-19T03:21:46.702Z,89.40
2022-09-19T03:24:17.648Z,89.40
2022-09-19T03:26:45.963Z,89.40
2022-09-19T03:29:13.973Z,89.40
2022-09-19T03:31:55.232Z,89.40
2022-09-19T03:34:24.214Z,89.40
2022-09-19T03:36:53.715Z,89.40
2022-09-19T03:39:28.226Z,89.40
2022-09-19T03:41:57.634Z,89.40
2022-09-19T03:44:25.324Z,89.40
2022-09-19T03:46:52.879Z,89.40
2022-09-19T03:49:20.799Z,89.40
2022-09-19T03:51:50.559Z,89.30
2022-09-19T03:54:18.656Z,89.30
2022-09-19T03:56:47.267Z,89.30
2022-09-19T03:59:16.014Z,89.30
2022-09-19T04:01:48.531Z,89.30
2022-09-19T04:04:17.388Z,89.30
2022-09-19T04:06:50.363Z,89.30
2022-09-19T04:09:18.585Z,89.20
2022-09-19T04:11:49.179Z,89.20
2022-09-19T04:14:20.326Z,89.20
2022-09-19T04:17:02.584Z,89.10
2022-09-19T04:19:36.207Z,89.10
2022-09-19T04:22:28.290Z,89.10
2022-09-19T04:25:36.442Z,89.10
2022-09-19T04:28:15.072Z,89.00
2022-09-19T04:30:42.632Z,89.00
2022-09-19T04:33:12.782Z,89.00
2022-09-19T04:35:43.118Z,89.10
2022-09-19T04:38:14.356Z,89.10
2022-09-19T04:40:44.240Z,89.10
2022-09-19T04:43:15.122Z,89.20
2022-09-19T04:45:49.650Z,89.30
2022-09-19T04:48:25.880Z,89.30
2022-09-19T04:50:54.708Z,89.30
2022-09-19T04:53:25.469Z,89.40
2022-09-19T04:55:56.789Z,89.40
2022-09-19T04:58:24.533Z,89.50
2022-09-19T05:00:56.610Z,89.60
2022-09-19T05:03:27.039Z,89.60
2022-09-19T05:05:56.431Z,89.80
2022-09-19T05:08:31.296Z,89.90
2022-09-19T05:11:06.493Z,90.00
2022-09-19T05:13:39.326Z,90.00
2022-09-19T05:16:11.529Z,90.10
2022-09-19T05:18:43.727Z,90.10
2022-09-19T05:21:16.428Z,90.10
2022-09-19T05:23:44.960Z,90.20
2022-09-19T05:26:17.389Z,90.20
2022-09-19T05:28:48.995Z,90.30
2022-09-19T05:31:20.344Z,90.40
2022-09-19T05:33:58.770Z,90.50
2022-09-19T05:36:28.607Z,90.60
2022-09-19T05:39:15.379Z,90.70
2022-09-19T05:42:02.621Z,90.80
2022-09-19T05:44:33.768Z,91.00
2022-09-19T05:47:04.116Z,91.10
2022-09-19T05:49:34.059Z,91.20
2022-09-19T05:52:23.920Z,91.20
2022-09-19T05:54:51.636Z,91.20
2022-09-19T05:57:42.403Z,91.30
2022-09-19T06:00:12.346Z,91.20
2022-09-19T06:02:42.588Z,91.20
2022-09-19T06:05:12.737Z,91.10
2022-09-19T06:07:43.403Z,91.10
2022-09-19T06:10:11.256Z,91.00
2022-09-19T06:12:40.348Z,91.00
2022-09-19T06:15:10.240Z,90.90
2022-09-19T06:17:37.862Z,90.90
2022-09-19T06:20:31.858Z,90.80
2022-09-19T06:23:11.643Z,90.70
2022-09-19T06:25:40.704Z,90.60
2022-09-19T06:28:12.850Z,90.60
2022-09-19T06:30:47.890Z,90.50
2022-09-19T06:33:20.725Z,90.40
2022-09-19T06:35:59.184Z,90.40
2022-09-19T06:38:29.911Z,90.30
2022-09-19T06:41:09.280Z,90.20
2022-09-19T06:44:09.125Z,90.20
2022-09-19T06:46:57.384Z,90.10
2022-09-19T06:49:32.064Z,90.00
2022-09-19T06:52:15.524Z,90.00
2022-09-19T06:54:43.418Z,90.00
2022-09-19T06:57:12.551Z,89.90
2022-09-19T06:59:42.140Z,89.90
2022-09-19T07:02:10.398Z,89.80
2022-09-19T07:04:39.407Z,89.80
2022-09-19T07:07:32.254Z,89.70
2022-09-19T07:10:01.291Z,89.70
2022-09-19T07:12:38.104Z,89.60
2022-09-19T07:15:09.421Z,89.40
2022-09-19T07:17:37.225Z,89.40
2022-09-19T07:20:05.473Z,89.30
2022-09-19T07:22:48.832Z,89.20
2022-09-19T07:25:39.372Z,89.10
2022-09-19T07:28:10.422Z,89.20
2022-09-19T07:30:40.329Z,89.20
2022-09-19T07:33:10.453Z,89.10
2022-09-19T07:35:41.925Z,89.00
2022-09-19T07:38:18.371Z,89.00
2022-09-19T07:41:02.524Z,88.90
2022-09-19T07:43:34.812Z,88.90
2022-09-19T07:46:34.023Z,88.90
2022-09-19T07:49:24.245Z,88.90
2022-09-19T07:52:03.004Z,88.90
2022-09-19T07:54:31.254Z,88.70
2022-09-19T07:57:01.229Z,88.60
2022-09-19T07:59:28.782Z,88.50
2022-09-19T08:02:00.580Z,88.50
2022-09-19T08:04:38.340Z,88.50
2022-09-19T08:07:07.655Z,88.50
2022-09-19T08:09:39.052Z,88.40
2022-09-19T08:12:13.104Z,88.50
2022-09-19T08:15:02.747Z,88.50
2022-09-19T08:17:30.472Z,88.30
2022-09-19T08:19:58.759Z,88.30
2022-09-19T08:22:27.459Z,88.30
2022-09-19T08:25:02.469Z,88.10
2022-09-19T08:27:32.170Z,88.10
2022-09-19T08:30:00.905Z,88.00
2022-09-19T08:32:31.177Z,88.00
2022-09-19T08:35:01.489Z,88.20
2022-09-19T08:37:30.331Z,88.10
2022-09-19T08:40:19.048Z,88.10
2022-09-19T08:43:01.025Z,88.00
2022-09-19T08:46:02.527Z,88.00
2022-09-19T08:48:56.163Z,87.80
2022-09-19T08:51:56.219Z,87.80
2022-09-19T08:54:33.554Z,87.80
2022-09-19T08:57:33.470Z,87.90
2022-09-19T09:00:11.955Z,88.10
2022-09-19T09:03:13.982Z,88.00
2022-09-19T09:05:53.574Z,87.80
2022-09-19T09:08:50.739Z,87.50
2022-09-19T09:11:42.916Z,87.10
2022-09-19T09:14:20.390Z,87.30
2022-09-19T09:17:02.889Z,87.00
2022-09-19T09:19:43.500Z,86.90
2022-09-19T09:22:27.647Z,86.90
2022-09-19T09:25:20.170Z,86.70
2022-09-19T09:28:08.301Z,86.70
2022-09-19T09:31:26.788Z,86.60
2022-09-19T09:34:07.452Z,86.10
2022-09-19T09:36:49.724Z,85.40
2022-09-19T09:39:27.143Z,85.00
2022-09-19T09:41:59.000Z,84.60
2022-09-19T09:44:47.543Z,84.10
2022-09-19T09:47:28.756Z,84.20
2022-09-19T09:50:59.805Z,84.50
2022-09-19T09:53:47.352Z,84.50
2022-09-19T09:56:41.512Z,84.10
2022-09-19T10:00:00.712Z,83.80
2022-09-19T10:02:53.525Z,83.90
2022-09-19T10:05:38.291Z,83.40
2022-09-19T10:08:17.210Z,83.20
2022-09-19T10:10:46.100Z,82.70
2022-09-19T10:13:26.755Z,82.70
2022-09-19T10:16:04.372Z,82.40
2022-09-19T10:18:44.534Z,82.50
2022-09-19T10:21:16.344Z,83.10
2022-09-19T10:23:51.400Z,83.60
2022-09-19T10:26:30.043Z,84.10
2022-09-19T10:29:03.910Z,84.40
2022-09-19T10:31:45.725Z,84.80
2022-09-19T10:34:52.788Z,85.20
2022-09-19T10:41:40.839Z,85.00
2022-09-19T10:44:29.919Z,84.70
2022-09-19T10:47:05.825Z,84.60
2022-09-19T10:50:00.700Z,84.50
2022-09-19T10:52:51.789Z,84.40
2022-09-19T10:55:26.141Z,84.00
2022-09-19T10:58:02.349Z,83.50
2022-09-19T11:00:52.716Z,83.10
2022-09-19T11:03:30.886Z,82.70
2022-09-19T11:06:18.054Z,82.20
2022-09-19T11:08:57.035Z,81.70
2022-09-19T11:11:50.968Z,81.50
2022-09-19T11:14:39.082Z,81.20
2022-09-19T11:17:30.915Z,81.30
2022-09-19T11:20:19.770Z,81.20
2022-09-19T11:23:32.934Z,81.40
2022-09-19T11:26:37.087Z,81.00
2022-09-19T11:29:25.621Z,80.40
2022-09-19T11:32:54.678Z,80.10
2022-09-19T11:35:58.582Z,80.00
2022-09-19T11:41:55.840Z,80.00
2022-09-19T11:45:03.238Z,80.20
2022-09-19T11:47:36.630Z,80.20
2022-09-19T11:50:34.743Z,79.70
2022-09-19T11:53:38.715Z,79.20
2022-09-19T11:57:02.469Z,79.20
2022-09-19T11:59:50.176Z,79.40
2022-09-19T12:02:37.876Z,79.10
2022-09-19T12:05:16.323Z,77.90
2022-09-19T12:08:19.159Z,77.90
2022-09-19T12:11:02.322Z,77.50
2022-09-19T12:13:47.251Z,77.20
2022-09-19T12:16:26.358Z,77.40
2022-09-19T12:19:11.273Z,76.80
2022-09-19T12:21:54.948Z,76.60
2022-09-19T12:24:54.588Z,76.80
2022-09-19T12:27:41.928Z,77.50
2022-09-19T12:30:24.488Z,77.60
2022-09-19T12:33:26.166Z,77.60
2022-09-19T12:36:07.437Z,77.70
2022-09-19T12:38:41.455Z,77.80
2022-09-19T12:41:36.744Z,77.80
2022-09-19T12:44:23.259Z,78.20
2022-09-19T12:47:02.057Z,78.50
2022-09-19T12:50:10.216Z,78.50
2022-09-19T12:52:48.521Z,78.50
2022-09-19T12:55:27.640Z,78.30
2022-09-19T12:58:06.608Z,78.20
2022-09-19T13:00:40.655Z,78.30
2022-09-19T13:03:15.058Z,78.60
2022-09-19T13:05:56.756Z,79.20
2022-09-19T13:08:37.196Z,79.70
2022-09-19T13:11:32.341Z,80.00
2022-09-19T13:14:17.208Z,80.10
2022-09-19T13:17:05.386Z,80.30
2022-09-19T13:20:14.483Z,80.40
2022-09-19T13:23:12.633Z,80.70
2022-09-19T13:25:44.796Z,81.10
2022-09-19T13:28:21.427Z,81.30
2022-09-19T13:31:08.043Z,81.10
2022-09-19T13:34:13.755Z,81.10
2022-09-19T13:36:43.422Z,80.90
2022-09-19T13:39:56.635Z,81.20
2022-09-19T13:42:38.198Z,81.30
2022-09-19T13:45:31.117Z,81.20
2022-09-19T13:48:31.068Z,81.10
2022-09-19T13:51:10.039Z,81.40
2022-09-19T13:53:41.538Z,81.30
2022-09-19T13:56:49.019Z,81.30
2022-09-19T13:59:38.991Z,81.00
2022-09-19T14:02:13.409Z,81.00
2022-09-19T14:04:54.138Z,80.60
2022-09-19T14:10:49.179Z,78.80
2022-09-19T14:13:28.835Z,77.70
2022-09-19T14:16:08.416Z,76.90
2022-09-19T14:18:49.843Z,76.40
2022-09-19T14:21:36.028Z,75.80
2022-09-19T14:24:29.500Z,75.20
2022-09-19T14:27:29.625Z,75.20
2022-09-19T14:30:34.704Z,74.70
2022-09-19T14:33:33.103Z,74.80
2022-09-19T14:36:40.550Z,74.50
2022-09-19T14:39:21.744Z,73.60
2022-09-19T14:42:08.623Z,72.60
2022-09-19T14:45:06.067Z,72.10
2022-09-19T14:47:47.670Z,72.20
2022-09-19T14:50:28.855Z,71.90
2022-09-19T14:53:22.712Z,71.30
2022-09-19T14:55:51.223Z,71.30
2022-09-19T14:58:30.768Z,71.20
2022-09-19T15:01:07.995Z,70.30
2022-09-19T15:03:58.195Z,70.40
2022-09-19T15:06:33.696Z,70.40
2022-09-19T15:09:02.780Z,70.00
2022-09-19T15:11:31.211Z,69.70
2022-09-19T15:14:00.484Z,69.20
2022-09-19T15:16:28.940Z,69.50
2022-09-19T15:18:59.087Z,70.20
2022-09-19T15:21:33.348Z,70.90
2022-09-19T15:24:04.085Z,71.60
2022-09-19T15:26:41.735Z,72.00
2022-09-19T15:29:37.915Z,72.00
2022-09-19T15:32:17.698Z,72.20
2022-09-19T15:34:53.624Z,72.60
2022-09-19T15:37:24.738Z,73.00
2022-09-19T15:39:54.251Z,73.30
2022-09-19T15:42:22.306Z,73.70
2022-09-19T15:44:54.945Z,74.10
2022-09-19T15:47:30.236Z,74.60
2022-09-19T15:50:01.268Z,74.70
2022-09-19T15:52:40.636Z,74.80
2022-09-19T15:55:32.464Z,74.90
2022-09-19T15:58:02.743Z,74.70
2022-09-19T16:00:31.769Z,74.80
2022-09-19T16:03:02.173Z,74.90
2022-09-19T16:05:32.547Z,74.90
2022-09-19T16:08:20.928Z,74.80
2022-09-19T16:10:55.025Z,75.00
2022-09-19T16:13:41.352Z,75.20
2022-09-19T16:16:30.629Z,75.30
2022-09-19T16:19:02.038Z,75.50
2022-09-19T16:21:44.069Z,75.70
2022-09-19T16:24:18.356Z,75.70
2022-09-19T16:26:50.517Z,75.70
2022-09-19T16:29:18.897Z,75.70
2022-09-19T16:31:49.556Z,75.60
2022-09-19T16:34:33.195Z,75.40
2022-09-19T16:37:02.196Z,75.10
2022-09-19T16:39:42.076Z,75.00
2022-09-19T16:42:12.930Z,75.00
2022-09-19T16:44:48.798Z,74.60
2022-09-19T16:47:21.296Z,74.00
2022-09-19T16:49:52.378Z,73.60
2022-09-19T16:52:51.303Z,72.50
2022-09-19T16:55:39.661Z,70.20
2022-09-19T16:58:16.716Z,68.20
2022-09-19T17:00:48.260Z,67.70
2022-09-19T17:03:16.149Z,67.80
2022-09-19T17:05:44.432Z,68.00
2022-09-19T17:08:13.016Z,68.20
2022-09-19T17:10:42.038Z,68.90
2022-09-19T17:13:18.006Z,69.30
2022-09-19T17:15:50.973Z,69.60
2022-09-19T17:18:18.695Z,70.00
2022-09-19T17:20:46.704Z,70.50
2022-09-19T17:23:16.237Z,70.80
2022-09-19T17:25:50.292Z,71.20
2022-09-19T17:28:18.203Z,71.50
2022-09-19T17:30:47.245Z,71.90
2022-09-19T17:33:18.348Z,72.30
2022-09-19T17:35:47.244Z,72.50
2022-09-19T17:38:40.698Z,72.90
2022-09-19T17:41:10.990Z,73.10
2022-09-19T17:43:38.753Z,73.20
2022-09-19T17:46:12.885Z,73.40
2022-09-19T17:48:41.649Z,73.70
2022-09-19T17:51:12.254Z,74.00
2022-09-19T17:53:43.915Z,74.20
2022-09-19T17:56:12.622Z,74.40
2022-09-19T17:58:50.526Z,74.60
2022-09-19T18:01:38.378Z,74.70
2022-09-19T18:04:07.588Z,74.90
2022-09-19T18:06:41.356Z,75.00
2022-09-19T18:09:15.652Z,75.20
2022-09-19T18:11:44.426Z,75.30
2022-09-19T18:14:17.185Z,75.40
2022-09-19T18:16:48.591Z,75.50
2022-09-19T18:19:17.204Z,75.70
2022-09-19T18:21:45.115Z,75.90
2022-09-19T18:24:13.166Z,75.90
2022-09-19T18:26:41.654Z,76.00
2022-09-19T18:29:15.965Z,76.10
2022-09-19T18:31:46.232Z,76.30
2022-09-19T18:34:16.128Z,76.40
2022-09-19T18:36:46.471Z,76.50
2022-09-19T18:39:14.452Z,76.60
2022-09-19T18:41:43.046Z,76.70
2022-09-19T18:44:11.355Z,76.80
2022-09-19T18:46:40.473Z,76.80
2022-09-19T18:49:10.830Z,76.90
2022-09-19T18:51:38.549Z,76.90
2022-09-19T18:54:06.891Z,76.90
2022-09-19T18:56:35.825Z,76.90
2022-09-19T18:59:04.384Z,76.90
2022-09-19T19:01:36.117Z,77.00
2022-09-19T19:04:05.711Z,77.00
2022-09-19T19:06:35.747Z,77.10
2022-09-19T19:09:08.302Z,77.20
2022-09-19T19:11:43.036Z,77.30
2022-09-19T19:14:15.409Z,77.50
2022-09-19T19:16:43.303Z,77.60
2022-09-19T19:19:11.197Z,77.80
2022-09-19T19:21:42.454Z,78.00
2022-09-19T19:24:19.485Z,78.30
2022-09-19T19:26:48.291Z,78.80
2022-09-19T19:29:16.155Z,79.00
2022-09-19T19:31:43.896Z,79.30
2022-09-19T19:34:11.975Z,79.60
2022-09-19T19:36:40.324Z,79.80
2022-09-19T19:39:09.509Z,80.10
2022-09-19T19:41:44.487Z,80.40
2022-09-19T19:44:12.638Z,80.60
2022-09-19T19:46:40.506Z,80.50
2022-09-19T19:49:12.581Z,80.50
2022-09-19T19:51:43.010Z,80.50
2022-09-19T19:54:13.930Z,80.50
2022-09-19T19:56:44.754Z,80.60
2022-09-19T19:59:13.403Z,80.50
2022-09-19T20:01:41.207Z,80.50
2022-09-19T20:04:15.080Z,80.50
2022-09-19T20:06:47.085Z,80.40
2022-09-19T20:09:15.740Z,80.50
2022-09-19T20:11:44.428Z,80.50
2022-09-19T20:14:17.377Z,80.40
2022-09-19T20:16:48.223Z,80.40
2022-09-19T20:19:19.821Z,80.50
2022-09-19T20:21:50.795Z,80.50
2022-09-19T20:24:21.748Z,80.60
2022-09-19T20:26:59.097Z,80.70
2022-09-19T20:29:29.746Z,80.70
2022-09-19T20:32:01.653Z,80.80
2022-09-19T20:34:30.149Z,80.80
2022-09-19T20:36:59.960Z,80.90
2022-09-19T20:39:28.168Z,81.00
2022-09-19T20:41:56.436Z,81.00
2022-09-19T20:44:24.239Z,81.00
2022-09-19T20:46:51.764Z,81.00
2022-09-19T20:49:22.327Z,81.00
2022-09-19T20:51:50.063Z,81.00
2022-09-19T20:54:23.079Z,81.00
2022-09-19T20:56:56.197Z,81.00
2022-09-19T20:59:23.993Z,81.00
2022-09-19T21:01:52.616Z,81.10
2022-09-19T21:04:21.276Z,81.10
2022-09-19T21:06:49.568Z,81.20
2022-09-19T21:09:17.257Z,81.10
2022-09-19T21:11:45.039Z,81.20
2022-09-19T21:14:13.174Z,81.30
2022-09-19T21:16:40.977Z,81.30
2022-09-19T21:19:10.456Z,81.30
2022-09-19T21:21:39.031Z,81.20
2022-09-19T21:24:08.362Z,81.20
2022-09-19T21:26:36.972Z,81.20
2022-09-19T21:29:07.914Z,81.20
2022-09-19T21:31:36.941Z,81.20
2022-09-19T21:34:06.180Z,81.10
2022-09-19T21:36:36.524Z,81.20
2022-09-19T21:39:05.187Z,81.30
2022-09-19T21:41:35.073Z,81.30
2022-09-19T21:44:05.079Z,81.40
2022-09-19T21:46:35.575Z,81.50
2022-09-19T21:49:03.624Z,81.60
2022-09-19T21:51:37.599Z,81.60
2022-09-19T21:54:06.906Z,81.70
2022-09-19T21:56:35.815Z,81.70
2022-09-19T21:59:06.154Z,81.80
2022-09-19T22:01:39.282Z,81.90
2022-09-19T22:04:07.210Z,82.10
2022-09-19T22:06:35.731Z,82.40
2022-09-19T22:09:10.226Z,82.60
2022-09-19T22:12:02.983Z,82.80
2022-09-19T22:14:33.502Z,83.00
2022-09-19T22:17:02.310Z,83.10
2022-09-19T22:19:30.099Z,83.10
2022-09-19T22:21:57.931Z,83.20
2022-09-19T22:24:27.881Z,83.30
2022-09-19T22:26:56.758Z,83.30
2022-09-19T22:29:25.907Z,83.30
2022-09-19T22:31:53.724Z,83.20
2022-09-19T22:34:21.510Z,83.20
2022-09-19T22:36:49.400Z,83.30
2022-09-19T22:39:17.838Z,83.30
2022-09-19T22:41:47.943Z,83.30
2022-09-19T22:44:15.887Z,83.20
2022-09-19T22:46:44.775Z,83.30
2022-09-19T22:49:15.127Z,83.30
2022-09-19T22:51:44.102Z,83.20
2022-09-19T22:54:12.016Z,83.20
2022-09-19T22:56:45.414Z,83.10
2022-09-19T22:59:14.759Z,83.00
2022-09-19T23:01:43.847Z,83.00
2022-09-19T23:04:11.471Z,83.10
2022-09-19T23:06:41.398Z,83.20
2022-09-19T23:09:14.413Z,83.20
2022-09-19T23:11:43.501Z,83.30
2022-09-19T23:14:19.086Z,83.40
2022-09-19T23:16:47.657Z,83.50
2022-09-19T23:19:17.890Z,83.60
2022-09-19T23:21:48.835Z,83.70
2022-09-19T23:24:19.955Z,83.80
2022-09-19T23:26:50.106Z,83.80
2022-09-19T23:29:19.282Z,83.90
2022-09-19T23:31:48.327Z,84.00
2022-09-19T23:34:19.135Z,84.00
2022-09-19T23:36:48.048Z,84.10
2022-09-19T23:39:18.489Z,84.10
2022-09-19T23:41:46.405Z,84.10
2022-09-19T23:44:14.753Z,84.20
2022-09-19T23:46:42.459Z,84.30
2022-09-19T23:49:10.239Z,84.30
2022-09-19T23:51:38.041Z,84.50
2022-09-19T23:54:06.582Z,84.50
2022-09-19T23:56:35.885Z,84.70
2022-09-19T23:59:03.929Z,84.80
